Time;durP1;ratioP1;P1;durP2;ratioP2;P2;SDS_P1;SDS_P2;PMS_P1;PMS_P2;Temp;Humidity;BMP_temperature;BMP_pressure;BME280_temperature;BME280_humidity;BME280_pressure;Samples;Min_cycle;Max_cycle;Signal;HPM_P1;HPM_P2
2022/08/15 00:02:21;;;;;;;11.00;8.77;;;;;;;;;;5071102;27;97270;-76
2022/08/15 00:05:10;;;;;;;12.00;8.27;;;;;;;;;;5070365;27;95250;-79
2022/08/15 00:07:38;;;;;;;12.48;8.98;;;;;;;;;;5070325;27;96913;-78
2022/08/15 00:10:15;;;;;;;9.98;7.95;;;;;;;;;;5072477;27;95322;-78
2022/08/15 00:13:09;;;;;;;17.70;8.60;;;;;;;;;;5060087;27;95436;-79
2022/08/15 00:15:41;;;;;;;10.52;9.10;;;;;;;;;;5070321;27;96880;-79
2022/08/15 00:18:09;;;;;;;13.65;8.32;;;;;;;;;;5061107;27;97632;-79
2022/08/15 00:20:37;;;;;;;10.65;8.25;;;;;;;;;;5068401;27;95402;-79
2022/08/15 00:23:07;;;;;;;10.88;8.35;;;;;;;;;;5067341;27;95662;-79
2022/08/15 00:25:39;;;;;;;17.08;8.80;;;;;;;;;;5063455;27;96608;-79
2022/08/15 00:28:07;;;;;;;13.57;8.57;;;;;;;;;;5062928;27;97139;-79
2022/08/15 00:30:38;;;;;;;13.95;8.95;;;;;;;;;;5042299;27;97272;-79
2022/08/15 00:33:25;;;;;;;20.45;9.02;;;;;;;;;;5075301;27;95323;-78
2022/08/15 00:35:55;;;;;;;13.60;7.93;;;;;;;;;;5073250;27;96784;-79
2022/08/15 00:38:29;;;;;;;11.45;8.45;;;;;;;;;;5075589;27;97370;-78
2022/08/15 00:44:02;;;;;;;17.48;8.13;;;;;;;;;;5074992;27;96898;-78
2022/08/15 00:46:32;;;;;;;;;;;;;;;;;;5076244;27;97730;-75
2022/08/15 00:48:58;;;;;;;12.75;7.82;;;;;;;;;;5073477;27;126544;-75
2022/08/15 00:51:25;;;;;;;10.20;7.93;;;;;;;;;;5073909;27;97753;-78
2022/08/15 00:54:08;;;;;;;11.00;8.77;;;;;;;;;;5075247;27;95224;-78
2022/08/15 00:57:06;;;;;;;9.60;8.27;;;;;;;;;;5071788;27;98357;-79
2022/08/15 00:59:38;;;;;;;10.40;7.32;;;;;;;;;;5074510;27;96716;-78
2022/08/15 01:02:11;;;;;;;9.25;7.03;;;;;;;;;;5069288;27;96558;-79
2022/08/15 01:04:58;;;;;;;10.77;7.18;;;;;;;;;;5071972;27;98771;-78
2022/08/15 01:07:27;;;;;;;11.25;8.18;;;;;;;;;;5074713;27;97443;-79
2022/08/15 01:09:54;;;;;;;11.25;8.50;;;;;;;;;;5078335;27;95282;-79
2022/08/15 01:12:22;;;;;;;11.82;8.20;;;;;;;;;;5072171;27;97392;-78
2022/08/15 01:15:00;;;;;;;21.15;8.50;;;;;;;;;;5071471;27;95653;-78
2022/08/15 01:17:27;;;;;;;11.40;7.43;;;;;;;;;;5074366;27;96696;-81
2022/08/15 01:20:04;;;;;;;10.27;7.70;;;;;;;;;;5074838;27;97219;-80
2022/08/15 01:22:43;;;;;;;14.85;8.90;;;;;;;;;;5072135;27;96064;-80
2022/08/15 01:25:13;;;;;;;14.45;9.20;;;;;;;;;;5072626;27;96701;-79
2022/08/15 01:28:02;;;;;;;11.82;9.90;;;;;;;;;;5073974;27;99050;-80
2022/08/15 01:30:49;;;;;;;12.05;9.00;;;;;;;;;;5073877;27;95275;-79
2022/08/15 01:33:31;;;;;;;12.13;8.98;;;;;;;;;;5059442;27;96915;-79
2022/08/15 01:35:59;;;;;;;12.63;9.38;;;;;;;;;;5073362;27;95934;-79
2022/08/15 01:38:27;;;;;;;12.05;10.43;;;;;;;;;;5070661;27;96783;-79
2022/08/15 01:41:32;;;;;;;14.77;10.52;;;;;;;;;;5061215;27;98552;-79
2022/08/15 01:44:02;;;;;;;15.35;10.98;;;;;;;;;;5059044;27;95260;-79
2022/08/15 01:46:53;;;;;;;18.38;11.13;;;;;;;;;;5061428;27;98534;-79
2022/08/15 01:49:26;;;;;;;16.92;11.85;;;;;;;;;;5059483;27;97552;-78
2022/08/15 01:51:57;;;;;;;18.33;10.88;;;;;;;;;;5035726;27;95755;-78
2022/08/15 01:54:26;;;;;;;19.57;11.30;;;;;;;;;;5059750;27;96727;-77
2022/08/15 01:57:12;;;;;;;16.20;11.98;;;;;;;;;;5056839;27;99633;-79
2022/08/15 01:59:39;;;;;;;16.88;11.02;;;;;;;;;;5056429;27;96721;-78
2022/08/15 02:02:06;;;;;;;19.23;11.82;;;;;;;;;;5057516;27;98302;-79
2022/08/15 02:04:54;;;;;;;15.23;10.82;;;;;;;;;;5046116;27;95396;-76
2022/08/15 02:07:22;;;;;;;20.08;11.35;;;;;;;;;;5072310;27;96763;-78
2022/08/15 02:09:50;;;;;;;15.40;11.70;;;;;;;;;;5062046;27;97133;-81
2022/08/15 02:12:18;;;;;;;14.30;10.73;;;;;;;;;;5062367;27;95571;-80
2022/08/15 02:15:07;;;;;;;14.02;10.30;;;;;;;;;;5061348;27;98352;-79
2022/08/15 02:17:35;;;;;;;14.70;10.45;;;;;;;;;;5074191;27;97281;-79
2022/08/15 02:20:01;;;;;;;13.68;10.20;;;;;;;;;;5041883;27;96868;-77
2022/08/15 02:22:48;;;;;;;16.67;10.35;;;;;;;;;;5052949;27;99499;-76
2022/08/15 02:25:14;;;;;;;14.48;10.57;;;;;;;;;;5056863;27;95443;-77
2022/08/15 02:27:49;;;;;;;17.58;10.65;;;;;;;;;;5065650;27;95737;-77
2022/08/15 02:30:18;;;;;;;11.82;10.35;;;;;;;;;;5062179;27;97431;-78
2022/08/15 02:32:47;;;;;;;14.35;10.15;;;;;;;;;;5067922;27;95357;-76
2022/08/15 02:35:16;;;;;;;16.00;10.35;;;;;;;;;;5060993;27;97219;-80
2022/08/15 02:37:43;;;;;;;15.20;9.88;;;;;;;;;;5048469;27;97638;-77
2022/08/15 02:40:23;;;;;;;15.70;10.07;;;;;;;;;;5067663;27;95359;-79
2022/08/15 02:43:12;;;;;;;16.52;10.30;;;;;;;;;;5052438;27;98989;-80
2022/08/15 02:45:47;;;;;;;13.20;10.43;;;;;;;;;;5053115;27;96648;-80
2022/08/15 02:48:34;;;;;;;13.82;9.93;;;;;;;;;;5053502;27;98029;-77
2022/08/15 02:51:02;;;;;;;12.07;9.65;;;;;;;;;;5069144;27;97474;-80
2022/08/15 02:53:35;;;;;;;16.10;9.48;;;;;;;;;;5071687;27;95288;-80
2022/08/15 02:56:14;;;;;;;11.13;9.07;;;;;;;;;;5046579;27;96865;-79
2022/08/15 02:58:42;;;;;;;11.32;9.65;;;;;;;;;;5058168;27;97391;-79
2022/08/15 03:01:09;;;;;;;12.25;9.25;;;;;;;;;;5063498;27;95510;-78
2022/08/15 03:03:47;;;;;;;12.60;9.75;;;;;;;;;;5073200;27;96549;-79
2022/08/15 03:06:17;;;;;;;15.20;9.98;;;;;;;;;;5065941;27;95210;-78
2022/08/15 03:09:00;;;;;;;13.02;9.38;;;;;;;;;;5057647;27;97110;-79
2022/08/15 03:11:28;;;;;;;12.02;8.95;;;;;;;;;;5053255;27;97458;-79
2022/08/15 03:14:16;;;;;;;12.38;8.95;;;;;;;;;;5066068;27;96909;-78
2022/08/15 03:17:00;;;;;;;12.10;8.60;;;;;;;;;;5064423;27;97035;-79
2022/08/15 03:19:27;;;;;;;12.93;9.07;;;;;;;;;;5068363;27;98164;-80
2022/08/15 03:21:55;;;;;;;17.52;9.98;;;;;;;;;;5062735;27;96055;-78
2022/08/15 03:24:22;;;;;;;22.38;10.38;;;;;;;;;;5053842;27;96720;-79
2022/08/15 03:26:49;;;;;;;13.70;10.07;;;;;;;;;;5054649;27;96592;-79
2022/08/15 03:29:18;;;;;;;12.38;10.18;;;;;;;;;;5060476;27;96825;-79
2022/08/15 03:31:47;;;;;;;15.27;10.65;;;;;;;;;;5061956;27;97364;-78
2022/08/15 03:34:15;;;;;;;17.27;11.10;;;;;;;;;;5065784;27;95537;-79
2022/08/15 03:36:45;;;;;;;21.88;12.05;;;;;;;;;;5059928;27;96852;-78
2022/08/15 03:39:18;;;;;;;18.38;11.40;;;;;;;;;;5059423;27;99598;-79
2022/08/15 03:41:45;;;;;;;14.05;10.73;;;;;;;;;;5065557;27;95410;-80
2022/08/15 03:44:19;;;;;;;16.52;10.50;;;;;;;;;;5053257;27;96757;-78
2022/08/15 03:46:54;;;;;;;20.85;10.80;;;;;;;;;;5059443;27;96161;-78
2022/08/15 03:49:20;;;;;;;13.20;10.45;;;;;;;;;;5039709;27;95646;-79
2022/08/15 03:52:07;;;;;;;15.00;10.65;;;;;;;;;;5059876;27;99113;-77
2022/08/15 03:54:35;;;;;;;13.90;10.93;;;;;;;;;;5063666;27;95606;-79
2022/08/15 03:57:04;;;;;;;16.98;11.48;;;;;;;;;;5071633;27;96732;-78
2022/08/15 03:59:30;;;;;;;15.32;10.90;;;;;;;;;;5067498;27;97647;-79
2022/08/15 04:02:08;;;;;;;18.48;12.10;;;;;;;;;;5071094;27;95365;-79
2022/08/15 04:04:55;;;;;;;18.42;11.60;;;;;;;;;;5058293;27;96894;-78
2022/08/15 04:07:25;;;;;;;19.50;11.82;;;;;;;;;;5074786;27;97307;-76
2022/08/15 04:10:07;;;;;;;14.95;12.10;;;;;;;;;;5074463;27;95935;-77
2022/08/15 04:12:54;;;;;;;17.48;12.00;;;;;;;;;;5078552;27;99058;-78
2022/08/15 04:15:27;;;;;;;17.08;11.73;;;;;;;;;;5066725;27;96915;-80
2022/08/15 04:17:56;;;;;;;13.40;10.85;;;;;;;;;;5075643;27;96622;-77
2022/08/15 04:20:26;;;;;;;20.65;11.15;;;;;;;;;;5075300;27;97590;-80
2022/08/15 04:22:58;;;;;;;14.73;10.13;;;;;;;;;;5074256;27;96132;-79
2022/08/15 04:25:34;;;;;;;13.25;10.55;;;;;;;;;;5058652;27;96815;-80
2022/08/15 04:28:09;;;;;;;15.53;10.20;;;;;;;;;;5054360;27;96584;-80
2022/08/15 04:30:54;;;;;;;16.10;11.20;;;;;;;;;;5054678;27;95585;-79
